Calder, Canada
Current Conditions -  °F | °C
As of 2:51 PM on Friday 28 Nov 2014 (Local Time) from CYQV Reporting Station
Light Snow Light Snow  
Wind Chill: -16°   Ceiling: 1000
Heat Index:   Visibility: 0.75mi
Dew Point:   Wind: 16mph
Humidity: 85%   Direction: 80°E
Pressure: 29.67"   Gusts: NA
Location:  51.15°N, 101.75°W
Report Text: CYQV 282051Z AUTO 08014KT 3/4SM -SN VV010 M16/M18 A2967 RMK SLP090
Loading
Personal Weather Stations






























Interactive Weather Map New forecast layout! Learn more

10-Day Weather Forecast

Advertisements
Track Severe Weather on mobile